sensor_id;sensor_type;location;lat;lon;timestamp;temperature;humidity
11647;DHT22;5880;52.342;9.662;2022-09-28T00:01:17;12.60;69.70
11647;DHT22;5880;52.342;9.662;2022-09-28T00:03:49;12.60;69.70
11647;DHT22;5880;52.342;9.662;2022-09-28T00:06:18;12.60;69.50
11647;DHT22;5880;52.342;9.662;2022-09-28T00:08:46;12.60;69.50
11647;DHT22;5880;52.342;9.662;2022-09-28T00:11:14;12.60;70.20
11647;DHT22;5880;52.342;9.662;2022-09-28T00:13:42;12.60;69.40
11647;DHT22;5880;52.342;9.662;2022-09-28T00:16:11;12.50;69.40
11647;DHT22;5880;52.342;9.662;2022-09-28T00:18:39;12.50;69.30
11647;DHT22;5880;52.342;9.662;2022-09-28T00:21:06;12.50;69.30
11647;DHT22;5880;52.342;9.662;2022-09-28T00:23:40;12.50;69.40
11647;DHT22;5880;52.342;9.662;2022-09-28T00:26:26;12.50;69.40
11647;DHT22;5880;52.342;9.662;2022-09-28T00:28:54;12.50;69.30
11647;DHT22;5880;52.342;9.662;2022-09-28T00:31:23;12.50;69.30
11647;DHT22;5880;52.342;9.662;2022-09-28T00:33:50;12.40;69.10
11647;DHT22;5880;52.342;9.662;2022-09-28T00:36:17;12.40;69.10
11647;DHT22;5880;52.342;9.662;2022-09-28T00:38:44;12.40;69.10
11647;DHT22;5880;52.342;9.662;2022-09-28T00:41:11;12.40;69.10
11647;DHT22;5880;52.342;9.662;2022-09-28T00:43:37;12.40;69.10
11647;DHT22;5880;52.342;9.662;2022-09-28T00:46:13;12.30;69.10
11647;DHT22;5880;52.342;9.662;2022-09-28T00:48:57;12.40;69.30
11647;DHT22;5880;52.342;9.662;2022-09-28T00:51:32;12.30;69.50
11647;DHT22;5880;52.342;9.662;2022-09-28T00:54:04;12.30;69.50
11647;DHT22;5880;52.342;9.662;2022-09-28T00:56:35;12.30;69.50
11647;DHT22;5880;52.342;9.662;2022-09-28T00:59:06;12.30;69.60
11647;DHT22;5880;52.342;9.662;2022-09-28T01:01:33;12.30;69.70
11647;DHT22;5880;52.342;9.662;2022-09-28T01:03:59;12.30;69.70
11647;DHT22;5880;52.342;9.662;2022-09-28T01:06:30;12.40;69.70
11647;DHT22;5880;52.342;9.662;2022-09-28T01:09:02;12.30;69.80
11647;DHT22;5880;52.342;9.662;2022-09-28T01:11:32;12.40;69.80
11647;DHT22;5880;52.342;9.662;2022-09-28T01:14:01;12.40;69.70
11647;DHT22;5880;52.342;9.662;2022-09-28T01:16:49;12.40;69.70
11647;DHT22;5880;52.342;9.662;2022-09-28T01:23:00;12.40;69.70
11647;DHT22;5880;52.342;9.662;2022-09-28T01:25:57;12.40;70.00
11647;DHT22;5880;52.342;9.662;2022-09-28T01:28:49;12.50;70.10
11647;DHT22;5880;52.342;9.662;2022-09-28T01:31:25;12.50;69.90
11647;DHT22;5880;52.342;9.662;2022-09-28T01:34:09;12.50;70.00
11647;DHT22;5880;52.342;9.662;2022-09-28T01:36:46;12.50;70.00
11647;DHT22;5880;52.342;9.662;2022-09-28T01:39:18;12.50;70.00
11647;DHT22;5880;52.342;9.662;2022-09-28T01:41:51;12.50;69.90
11647;DHT22;5880;52.342;9.662;2022-09-28T01:44:23;12.50;69.90
11647;DHT22;5880;52.342;9.662;2022-09-28T01:46:54;12.50;70.00
11647;DHT22;5880;52.342;9.662;2022-09-28T01:49:34;12.50;69.90
11647;DHT22;5880;52.342;9.662;2022-09-28T01:52:21;12.50;70.00
11647;DHT22;5880;52.342;9.662;2022-09-28T01:55:18;12.60;69.90
11647;DHT22;5880;52.342;9.662;2022-09-28T01:58:02;12.60;69.90
11647;DHT22;5880;52.342;9.662;2022-09-28T02:00:35;12.60;70.10
11647;DHT22;5880;52.342;9.662;2022-09-28T02:03:11;12.60;69.90
11647;DHT22;5880;52.342;9.662;2022-09-28T02:05:49;12.60;69.90
11647;DHT22;5880;52.342;9.662;2022-09-28T02:08:24;12.60;69.90
11647;DHT22;5880;52.342;9.662;2022-09-28T02:11:12;12.60;69.90
11647;DHT22;5880;52.342;9.662;2022-09-28T02:13:49;12.60;70.00
11647;DHT22;5880;52.342;9.662;2022-09-28T02:16:46;12.60;69.90
11647;DHT22;5880;52.342;9.662;2022-09-28T02:19:19;12.60;69.90
11647;DHT22;5880;52.342;9.662;2022-09-28T02:22:00;12.60;69.80
11647;DHT22;5880;52.342;9.662;2022-09-28T02:27:42;12.60;69.90
11647;DHT22;5880;52.342;9.662;2022-09-28T02:30:12;12.60;69.70
11647;DHT22;5880;52.342;9.662;2022-09-28T02:32:42;12.60;69.70
11647;DHT22;5880;52.342;9.662;2022-09-28T02:35:13;12.60;69.80
11647;DHT22;5880;52.342;9.662;2022-09-28T02:37:41;12.60;69.80
11647;DHT22;5880;52.342;9.662;2022-09-28T02:40:17;12.60;69.80
11647;DHT22;5880;52.342;9.662;2022-09-28T02:42:55;12.70;70.00
11647;DHT22;5880;52.342;9.662;2022-09-28T02:45:55;12.70;69.90
11647;DHT22;5880;52.342;9.662;2022-09-28T02:57:26;12.60;69.80
11647;DHT22;5880;52.342;9.662;2022-09-28T03:00:07;12.60;69.80
11647;DHT22;5880;52.342;9.662;2022-09-28T03:02:49;12.60;69.80
11647;DHT22;5880;52.342;9.662;2022-09-28T03:08:39;12.60;70.00
11647;DHT22;5880;52.342;9.662;2022-09-28T03:11:17;12.60;70.00
11647;DHT22;5880;52.342;9.662;2022-09-28T03:13:50;12.60;70.00
11647;DHT22;5880;52.342;9.662;2022-09-28T03:16:17;12.60;69.90
11647;DHT22;5880;52.342;9.662;2022-09-28T03:18:44;12.60;69.90
11647;DHT22;5880;52.342;9.662;2022-09-28T03:21:11;12.60;70.00
11647;DHT22;5880;52.342;9.662;2022-09-28T03:23:38;12.60;70.10
11647;DHT22;5880;52.342;9.662;2022-09-28T03:26:07;12.60;70.10
11647;DHT22;5880;52.342;9.662;2022-09-28T03:28:35;12.60;70.10
11647;DHT22;5880;52.342;9.662;2022-09-28T03:31:01;12.60;70.00
11647;DHT22;5880;52.342;9.662;2022-09-28T03:33:27;12.60;70.10
11647;DHT22;5880;52.342;9.662;2022-09-28T03:35:52;12.60;70.10
11647;DHT22;5880;52.342;9.662;2022-09-28T03:38:19;12.60;70.10
11647;DHT22;5880;52.342;9.662;2022-09-28T03:40:57;12.60;70.20
11647;DHT22;5880;52.342;9.662;2022-09-28T03:43:25;12.60;70.30
11647;DHT22;5880;52.342;9.662;2022-09-28T03:45:59;12.60;70.10
11647;DHT22;5880;52.342;9.662;2022-09-28T03:48:31;12.60;70.20
11647;DHT22;5880;52.342;9.662;2022-09-28T03:51:04;12.60;70.30
11647;DHT22;5880;52.342;9.662;2022-09-28T03:53:32;12.60;70.30
11647;DHT22;5880;52.342;9.662;2022-09-28T03:56:06;12.60;70.20
11647;DHT22;5880;52.342;9.662;2022-09-28T03:58:35;12.60;70.40
11647;DHT22;5880;52.342;9.662;2022-09-28T04:01:02;12.60;70.20
11647;DHT22;5880;52.342;9.662;2022-09-28T04:03:30;12.60;70.20
11647;DHT22;5880;52.342;9.662;2022-09-28T04:05:56;12.60;70.20
11647;DHT22;5880;52.342;9.662;2022-09-28T04:08:21;12.60;70.30
11647;DHT22;5880;52.342;9.662;2022-09-28T04:10:47;12.60;70.30
11647;DHT22;5880;52.342;9.662;2022-09-28T04:13:13;12.60;70.30
11647;DHT22;5880;52.342;9.662;2022-09-28T04:15:39;12.60;70.40
11647;DHT22;5880;52.342;9.662;2022-09-28T04:18:11;12.60;70.40
11647;DHT22;5880;52.342;9.662;2022-09-28T04:20:37;12.60;70.50
11647;DHT22;5880;52.342;9.662;2022-09-28T04:23:05;12.60;70.40
11647;DHT22;5880;52.342;9.662;2022-09-28T04:25:31;12.60;70.40
11647;DHT22;5880;52.342;9.662;2022-09-28T04:27:57;12.60;70.40
11647;DHT22;5880;52.342;9.662;2022-09-28T04:30:41;12.60;70.40
11647;DHT22;5880;52.342;9.662;2022-09-28T04:33:07;12.60;70.30
11647;DHT22;5880;52.342;9.662;2022-09-28T04:35:33;12.60;70.30
11647;DHT22;5880;52.342;9.662;2022-09-28T04:37:58;12.60;70.40
11647;DHT22;5880;52.342;9.662;2022-09-28T04:40:24;12.60;70.60
11647;DHT22;5880;52.342;9.662;2022-09-28T04:42:54;12.60;70.40
11647;DHT22;5880;52.342;9.662;2022-09-28T04:45:20;12.60;70.50
11647;DHT22;5880;52.342;9.662;2022-09-28T04:47:47;12.60;70.40
11647;DHT22;5880;52.342;9.662;2022-09-28T04:50:12;12.60;70.40
11647;DHT22;5880;52.342;9.662;2022-09-28T04:52:38;12.60;70.40
11647;DHT22;5880;52.342;9.662;2022-09-28T04:55:05;12.60;70.40
11647;DHT22;5880;52.342;9.662;2022-09-28T04:57:33;12.60;70.40
11647;DHT22;5880;52.342;9.662;2022-09-28T05:00:00;12.60;70.40
11647;DHT22;5880;52.342;9.662;2022-09-28T05:02:26;12.60;70.30
11647;DHT22;5880;52.342;9.662;2022-09-28T05:04:52;12.50;70.30
11647;DHT22;5880;52.342;9.662;2022-09-28T05:07:19;12.50;70.30
11647;DHT22;5880;52.342;9.662;2022-09-28T05:09:45;12.50;70.40
11647;DHT22;5880;52.342;9.662;2022-09-28T05:12:10;12.50;70.50
11647;DHT22;5880;52.342;9.662;2022-09-28T05:14:36;12.50;70.70
11647;DHT22;5880;52.342;9.662;2022-09-28T05:17:02;12.50;70.70
11647;DHT22;5880;52.342;9.662;2022-09-28T05:19:28;12.50;70.60
11647;DHT22;5880;52.342;9.662;2022-09-28T05:21:54;12.50;70.70
11647;DHT22;5880;52.342;9.662;2022-09-28T05:24:22;12.50;70.80
11647;DHT22;5880;52.342;9.662;2022-09-28T05:26:48;12.50;70.80
11647;DHT22;5880;52.342;9.662;2022-09-28T05:29:14;12.50;70.80
11647;DHT22;5880;52.342;9.662;2022-09-28T05:31:39;12.50;70.70
11647;DHT22;5880;52.342;9.662;2022-09-28T05:34:05;12.50;70.80
11647;DHT22;5880;52.342;9.662;2022-09-28T05:36:31;12.50;70.80
11647;DHT22;5880;52.342;9.662;2022-09-28T05:38:57;12.50;70.80
11647;DHT22;5880;52.342;9.662;2022-09-28T05:41:22;12.50;70.90
11647;DHT22;5880;52.342;9.662;2022-09-28T05:43:48;12.50;71.00
11647;DHT22;5880;52.342;9.662;2022-09-28T05:46:16;12.50;71.00
11647;DHT22;5880;52.342;9.662;2022-09-28T05:48:42;12.50;71.00
11647;DHT22;5880;52.342;9.662;2022-09-28T05:51:08;12.50;71.00
11647;DHT22;5880;52.342;9.662;2022-09-28T05:53:34;12.60;71.10
11647;DHT22;5880;52.342;9.662;2022-09-28T05:56:00;12.50;71.10
11647;DHT22;5880;52.342;9.662;2022-09-28T05:58:27;12.50;71.20
11647;DHT22;5880;52.342;9.662;2022-09-28T06:00:54;12.50;71.30
11647;DHT22;5880;52.342;9.662;2022-09-28T06:03:21;12.50;71.30
11647;DHT22;5880;52.342;9.662;2022-09-28T06:05:47;12.50;71.30
11647;DHT22;5880;52.342;9.662;2022-09-28T06:08:12;12.50;71.30
11647;DHT22;5880;52.342;9.662;2022-09-28T06:10:38;12.50;71.40
11647;DHT22;5880;52.342;9.662;2022-09-28T06:13:05;12.50;71.50
11647;DHT22;5880;52.342;9.662;2022-09-28T06:15:34;12.50;71.60
11647;DHT22;5880;52.342;9.662;2022-09-28T06:18:02;12.60;71.70
11647;DHT22;5880;52.342;9.662;2022-09-28T06:20:36;12.60;72.30
11647;DHT22;5880;52.342;9.662;2022-09-28T06:23:05;12.50;71.80
11647;DHT22;5880;52.342;9.662;2022-09-28T06:25:31;12.60;71.50
11647;DHT22;5880;52.342;9.662;2022-09-28T06:27:59;12.60;71.60
11647;DHT22;5880;52.342;9.662;2022-09-28T06:30:27;12.60;71.70
11647;DHT22;5880;52.342;9.662;2022-09-28T06:32:59;12.60;71.70
11647;DHT22;5880;52.342;9.662;2022-09-28T06:35:27;12.60;71.80
11647;DHT22;5880;52.342;9.662;2022-09-28T06:37:56;12.60;71.60
11647;DHT22;5880;52.342;9.662;2022-09-28T06:40:22;12.60;71.60
11647;DHT22;5880;52.342;9.662;2022-09-28T06:42:59;12.60;71.60
11647;DHT22;5880;52.342;9.662;2022-09-28T06:45:35;12.60;71.80
11647;DHT22;5880;52.342;9.662;2022-09-28T06:48:02;12.60;71.70
11647;DHT22;5880;52.342;9.662;2022-09-28T06:50:32;12.60;71.70
11647;DHT22;5880;52.342;9.662;2022-09-28T06:53:02;12.60;71.70
11647;DHT22;5880;52.342;9.662;2022-09-28T06:55:29;12.60;71.60
11647;DHT22;5880;52.342;9.662;2022-09-28T06:58:00;12.60;71.50
11647;DHT22;5880;52.342;9.662;2022-09-28T07:00:29;12.60;71.70
11647;DHT22;5880;52.342;9.662;2022-09-28T07:02:59;12.60;71.50
11647;DHT22;5880;52.342;9.662;2022-09-28T07:05:26;12.60;71.30
11647;DHT22;5880;52.342;9.662;2022-09-28T07:07:56;12.50;71.30
11647;DHT22;5880;52.342;9.662;2022-09-28T07:10:23;12.50;71.40
11647;DHT22;5880;52.342;9.662;2022-09-28T07:12:50;12.50;71.40
11647;DHT22;5880;52.342;9.662;2022-09-28T07:15:17;12.50;71.40
11647;DHT22;5880;52.342;9.662;2022-09-28T07:17:43;12.50;71.50
11647;DHT22;5880;52.342;9.662;2022-09-28T07:20:09;12.40;71.50
11647;DHT22;5880;52.342;9.662;2022-09-28T07:22:34;12.40;71.50
11647;DHT22;5880;52.342;9.662;2022-09-28T07:25:00;12.40;71.50
11647;DHT22;5880;52.342;9.662;2022-09-28T07:27:26;12.40;71.40
11647;DHT22;5880;52.342;9.662;2022-09-28T07:29:52;12.40;71.60
11647;DHT22;5880;52.342;9.662;2022-09-28T07:32:20;12.40;71.60
11647;DHT22;5880;52.342;9.662;2022-09-28T07:34:45;12.40;71.60
11647;DHT22;5880;52.342;9.662;2022-09-28T07:37:13;12.40;71.60
11647;DHT22;5880;52.342;9.662;2022-09-28T07:39:40;12.40;71.70
11647;DHT22;5880;52.342;9.662;2022-09-28T07:42:35;12.40;71.70
11647;DHT22;5880;52.342;9.662;2022-09-28T07:45:02;12.40;71.50
11647;DHT22;5880;52.342;9.662;2022-09-28T07:47:28;12.50;71.60
11647;DHT22;5880;52.342;9.662;2022-09-28T07:49:54;12.40;71.50
11647;DHT22;5880;52.342;9.662;2022-09-28T07:52:22;12.50;71.50
11647;DHT22;5880;52.342;9.662;2022-09-28T07:54:51;12.50;71.60
11647;DHT22;5880;52.342;9.662;2022-09-28T07:57:18;12.50;71.60
11647;DHT22;5880;52.342;9.662;2022-09-28T07:59:44;12.50;71.80
11647;DHT22;5880;52.342;9.662;2022-09-28T08:02:11;12.50;71.80
11647;DHT22;5880;52.342;9.662;2022-09-28T08:04:37;12.50;71.90
11647;DHT22;5880;52.342;9.662;2022-09-28T08:07:09;12.50;71.90
11647;DHT22;5880;52.342;9.662;2022-09-28T08:09:36;12.60;72.00
11647;DHT22;5880;52.342;9.662;2022-09-28T08:12:02;12.60;71.90
11647;DHT22;5880;52.342;9.662;2022-09-28T08:14:30;12.60;71.80
11647;DHT22;5880;52.342;9.662;2022-09-28T08:17:00;12.70;72.20
11647;DHT22;5880;52.342;9.662;2022-09-28T08:19:26;12.70;72.30
11647;DHT22;5880;52.342;9.662;2022-09-28T08:22:12;12.70;72.30
11647;DHT22;5880;52.342;9.662;2022-09-28T08:24:38;12.70;72.10
11647;DHT22;5880;52.342;9.662;2022-09-28T08:27:04;12.80;72.10
11647;DHT22;5880;52.342;9.662;2022-09-28T08:29:31;12.80;72.00
11647;DHT22;5880;52.342;9.662;2022-09-28T08:31:57;12.80;72.10
11647;DHT22;5880;52.342;9.662;2022-09-28T08:34:24;12.80;72.10
11647;DHT22;5880;52.342;9.662;2022-09-28T08:36:51;12.90;72.10
11647;DHT22;5880;52.342;9.662;2022-09-28T08:39:17;12.90;72.00
11647;DHT22;5880;52.342;9.662;2022-09-28T08:45:08;12.90;72.10
11647;DHT22;5880;52.342;9.662;2022-09-28T08:47:54;12.90;71.70
11647;DHT22;5880;52.342;9.662;2022-09-28T08:50:53;12.90;71.80
11647;DHT22;5880;52.342;9.662;2022-09-28T08:53:40;12.90;72.00
11647;DHT22;5880;52.342;9.662;2022-09-28T08:56:14;12.90;72.10
11647;DHT22;5880;52.342;9.662;2022-09-28T08:58:55;12.90;72.30
11647;DHT22;5880;52.342;9.662;2022-09-28T09:01:30;13.00;72.30
11647;DHT22;5880;52.342;9.662;2022-09-28T09:04:01;13.00;72.20
11647;DHT22;5880;52.342;9.662;2022-09-28T09:09:39;13.10;72.20
11647;DHT22;5880;52.342;9.662;2022-09-28T09:12:17;13.10;72.20
11647;DHT22;5880;52.342;9.662;2022-09-28T09:18:06;13.10;72.10
11647;DHT22;5880;52.342;9.662;2022-09-28T09:20:55;13.20;72.20
11647;DHT22;5880;52.342;9.662;2022-09-28T09:23:37;13.20;72.30
11647;DHT22;5880;52.342;9.662;2022-09-28T09:26:18;13.20;72.10
11647;DHT22;5880;52.342;9.662;2022-09-28T09:29:01;13.20;71.80
11647;DHT22;5880;52.342;9.662;2022-09-28T09:35:30;13.20;71.50
11647;DHT22;5880;52.342;9.662;2022-09-28T09:38:26;13.20;71.30
11647;DHT22;5880;52.342;9.662;2022-09-28T09:47:21;13.10;71.50
11647;DHT22;5880;52.342;9.662;2022-09-28T09:50:02;13.10;71.40
11647;DHT22;5880;52.342;9.662;2022-09-28T09:52:47;13.10;71.50
11647;DHT22;5880;52.342;9.662;2022-09-28T09:55:33;13.10;71.50
11647;DHT22;5880;52.342;9.662;2022-09-28T09:58:37;13.10;71.40
11647;DHT22;5880;52.342;9.662;2022-09-28T10:01:14;13.10;71.40
11647;DHT22;5880;52.342;9.662;2022-09-28T10:03:47;13.00;71.30
11647;DHT22;5880;52.342;9.662;2022-09-28T10:06:20;13.10;71.40
11647;DHT22;5880;52.342;9.662;2022-09-28T10:09:07;13.00;71.30
11647;DHT22;5880;52.342;9.662;2022-09-28T10:11:42;13.00;71.50
11647;DHT22;5880;52.342;9.662;2022-09-28T10:14:17;13.10;71.60
11647;DHT22;5880;52.342;9.662;2022-09-28T10:16:47;13.10;71.50
11647;DHT22;5880;52.342;9.662;2022-09-28T10:19:16;13.10;71.50
11647;DHT22;5880;52.342;9.662;2022-09-28T10:21:46;13.00;71.40
11647;DHT22;5880;52.342;9.662;2022-09-28T10:24:30;13.10;71.60
11647;DHT22;5880;52.342;9.662;2022-09-28T10:27:07;13.10;71.60
11647;DHT22;5880;52.342;9.662;2022-09-28T10:30:01;13.10;71.50
11647;DHT22;5880;52.342;9.662;2022-09-28T10:32:42;13.10;71.30
11647;DHT22;5880;52.342;9.662;2022-09-28T10:35:20;13.10;71.30
11647;DHT22;5880;52.342;9.662;2022-09-28T10:38:05;13.10;71.30
11647;DHT22;5880;52.342;9.662;2022-09-28T10:40:47;13.20;71.10
11647;DHT22;5880;52.342;9.662;2022-09-28T10:46:06;13.20;71.20
11647;DHT22;5880;52.342;9.662;2022-09-28T10:48:51;13.20;71.30
11647;DHT22;5880;52.342;9.662;2022-09-28T10:51:42;13.20;71.10
11647;DHT22;5880;52.342;9.662;2022-09-28T10:54:27;13.20;71.40
11647;DHT22;5880;52.342;9.662;2022-09-28T10:56:56;13.20;71.00
11647;DHT22;5880;52.342;9.662;2022-09-28T11:01:54;13.20;71.30
11647;DHT22;5880;52.342;9.662;2022-09-28T11:04:33;13.20;71.30
11647;DHT22;5880;52.342;9.662;2022-09-28T11:07:19;13.20;71.00
11647;DHT22;5880;52.342;9.662;2022-09-28T11:09:51;13.30;71.10
11647;DHT22;5880;52.342;9.662;2022-09-28T11:12:21;13.30;71.10
11647;DHT22;5880;52.342;9.662;2022-09-28T11:15:02;13.30;71.10
11647;DHT22;5880;52.342;9.662;2022-09-28T11:17:32;13.20;71.40
11647;DHT22;5880;52.342;9.662;2022-09-28T11:23:19;13.30;71.00
11647;DHT22;5880;52.342;9.662;2022-09-28T11:26:05;13.30;71.50
11647;DHT22;5880;52.342;9.662;2022-09-28T11:28:35;13.40;71.50
11647;DHT22;5880;52.342;9.662;2022-09-28T11:31:03;13.40;71.60
11647;DHT22;5880;52.342;9.662;2022-09-28T11:33:37;13.40;71.80
11647;DHT22;5880;52.342;9.662;2022-09-28T11:36:12;13.40;71.70
11647;DHT22;5880;52.342;9.662;2022-09-28T11:39:06;13.50;71.60
11647;DHT22;5880;52.342;9.662;2022-09-28T11:47:36;13.70;71.90
11647;DHT22;5880;52.342;9.662;2022-09-28T11:53:13;13.80;71.50
11647;DHT22;5880;52.342;9.662;2022-09-28T11:55:55;13.90;71.30
11647;DHT22;5880;52.342;9.662;2022-09-28T11:58:41;14.00;71.10
11647;DHT22;5880;52.342;9.662;2022-09-28T12:03:59;14.00;70.50
11647;DHT22;5880;52.342;9.662;2022-09-28T12:06:38;14.00;70.40
11647;DHT22;5880;52.342;9.662;2022-09-28T12:12:34;14.00;69.70
11647;DHT22;5880;52.342;9.662;2022-09-28T12:15:14;14.00;69.50
11647;DHT22;5880;52.342;9.662;2022-09-28T12:17:49;14.00;69.40
11647;DHT22;5880;52.342;9.662;2022-09-28T12:20:31;14.00;69.40
11647;DHT22;5880;52.342;9.662;2022-09-28T12:25:32;13.90;69.80
11647;DHT22;5880;52.342;9.662;2022-09-28T12:28:15;13.90;69.80
11647;DHT22;5880;52.342;9.662;2022-09-28T12:30:46;13.90;69.70
11647;DHT22;5880;52.342;9.662;2022-09-28T12:33:14;13.90;70.00
11647;DHT22;5880;52.342;9.662;2022-09-28T12:35:55;13.90;70.00
11647;DHT22;5880;52.342;9.662;2022-09-28T12:39:09;13.80;69.70
11647;DHT22;5880;52.342;9.662;2022-09-28T12:54:29;13.80;69.20
11647;DHT22;5880;52.342;9.662;2022-09-28T13:12:54;13.90;69.70
11647;DHT22;5880;52.342;9.662;2022-09-28T13:18:42;14.00;69.30
11647;DHT22;5880;52.342;9.662;2022-09-28T13:21:26;14.00;69.30
11647;DHT22;5880;52.342;9.662;2022-09-28T13:24:08;14.00;69.20
11647;DHT22;5880;52.342;9.662;2022-09-28T13:26:42;14.00;69.60
11647;DHT22;5880;52.342;9.662;2022-09-28T13:29:14;14.00;69.50
11647;DHT22;5880;52.342;9.662;2022-09-28T13:31:51;14.00;69.50
11647;DHT22;5880;52.342;9.662;2022-09-28T13:34:23;14.10;69.10
11647;DHT22;5880;52.342;9.662;2022-09-28T13:39:50;14.20;68.60
11647;DHT22;5880;52.342;9.662;2022-09-28T13:51:06;14.20;68.40
11647;DHT22;5880;52.342;9.662;2022-09-28T13:54:02;14.20;69.20
11647;DHT22;5880;52.342;9.662;2022-09-28T13:57:00;14.20;68.60
11647;DHT22;5880;52.342;9.662;2022-09-28T13:59:59;14.20;68.70
11647;DHT22;5880;52.342;9.662;2022-09-28T14:02:36;14.20;68.10
11647;DHT22;5880;52.342;9.662;2022-09-28T14:08:37;14.20;68.60
11647;DHT22;5880;52.342;9.662;2022-09-28T14:16:34;14.20;68.70
11647;DHT22;5880;52.342;9.662;2022-09-28T14:19:08;14.20;68.90
11647;DHT22;5880;52.342;9.662;2022-09-28T14:25:24;14.20;68.20
11647;DHT22;5880;52.342;9.662;2022-09-28T14:28:04;14.20;68.90
11647;DHT22;5880;52.342;9.662;2022-09-28T14:30:49;14.20;68.50
11647;DHT22;5880;52.342;9.662;2022-09-28T14:35:49;14.30;69.20
11647;DHT22;5880;52.342;9.662;2022-09-28T14:38:43;14.30;69.20
11647;DHT22;5880;52.342;9.662;2022-09-28T14:41:32;14.40;68.50
11647;DHT22;5880;52.342;9.662;2022-09-28T14:44:11;14.40;68.80
11647;DHT22;5880;52.342;9.662;2022-09-28T14:46:45;14.40;68.60
11647;DHT22;5880;52.342;9.662;2022-09-28T14:54:24;14.40;68.70
11647;DHT22;5880;52.342;9.662;2022-09-28T14:59:20;14.40;68.70
11647;DHT22;5880;52.342;9.662;2022-09-28T15:02:11;14.50;68.50
11647;DHT22;5880;52.342;9.662;2022-09-28T15:04:54;14.50;68.30
11647;DHT22;5880;52.342;9.662;2022-09-28T15:07:28;14.50;68.40
11647;DHT22;5880;52.342;9.662;2022-09-28T15:12:58;14.50;68.30
11647;DHT22;5880;52.342;9.662;2022-09-28T15:15:33;14.50;68.50
11647;DHT22;5880;52.342;9.662;2022-09-28T15:21:13;14.50;67.80
11647;DHT22;5880;52.342;9.662;2022-09-28T15:23:42;14.90;68.60
11647;DHT22;5880;52.342;9.662;2022-09-28T15:26:24;14.50;68.40
11647;DHT22;5880;52.342;9.662;2022-09-28T15:28:54;14.50;68.20
11647;DHT22;5880;52.342;9.662;2022-09-28T15:31:22;14.50;68.50
11647;DHT22;5880;52.342;9.662;2022-09-28T15:33:50;14.50;68.20
11647;DHT22;5880;52.342;9.662;2022-09-28T15:36:42;14.50;68.20
11647;DHT22;5880;52.342;9.662;2022-09-28T15:39:26;14.50;67.90
11647;DHT22;5880;52.342;9.662;2022-09-28T15:41:56;14.50;68.00
11647;DHT22;5880;52.342;9.662;2022-09-28T15:44:37;14.50;68.30
11647;DHT22;5880;52.342;9.662;2022-09-28T15:47:09;14.50;68.10
11647;DHT22;5880;52.342;9.662;2022-09-28T15:49:45;14.50;68.30
11647;DHT22;5880;52.342;9.662;2022-09-28T15:52:29;14.50;68.40
11647;DHT22;5880;52.342;9.662;2022-09-28T15:55:02;14.50;68.30
11647;DHT22;5880;52.342;9.662;2022-09-28T15:57:33;14.50;68.30
11647;DHT22;5880;52.342;9.662;2022-09-28T16:00:03;14.50;68.30
11647;DHT22;5880;52.342;9.662;2022-09-28T16:02:31;14.50;68.30
11647;DHT22;5880;52.342;9.662;2022-09-28T16:04:59;14.50;68.20
11647;DHT22;5880;52.342;9.662;2022-09-28T16:07:44;14.50;67.90
11647;DHT22;5880;52.342;9.662;2022-09-28T16:12:45;14.50;67.90
11647;DHT22;5880;52.342;9.662;2022-09-28T16:15:31;14.50;67.90
11647;DHT22;5880;52.342;9.662;2022-09-28T16:18:02;14.50;68.00
11647;DHT22;5880;52.342;9.662;2022-09-28T16:20:54;14.50;68.00
11647;DHT22;5880;52.342;9.662;2022-09-28T16:23:33;14.50;67.80
11647;DHT22;5880;52.342;9.662;2022-09-28T16:26:12;14.50;68.10
11647;DHT22;5880;52.342;9.662;2022-09-28T16:28:53;14.40;67.90
11647;DHT22;5880;52.342;9.662;2022-09-28T16:33:55;14.40;68.00
11647;DHT22;5880;52.342;9.662;2022-09-28T16:36:28;14.40;68.00
11647;DHT22;5880;52.342;9.662;2022-09-28T16:39:04;14.40;67.90
11647;DHT22;5880;52.342;9.662;2022-09-28T16:41:30;14.40;68.00
11647;DHT22;5880;52.342;9.662;2022-09-28T16:43:58;14.40;67.90
11647;DHT22;5880;52.342;9.662;2022-09-28T16:46:31;14.30;67.80
11647;DHT22;5880;52.342;9.662;2022-09-28T16:49:04;14.30;67.60
11647;DHT22;5880;52.342;9.662;2022-09-28T16:51:31;14.20;67.50
11647;DHT22;5880;52.342;9.662;2022-09-28T16:54:10;14.20;67.60
11647;DHT22;5880;52.342;9.662;2022-09-28T16:56:58;14.20;67.50
11647;DHT22;5880;52.342;9.662;2022-09-28T16:59:26;14.10;67.60
11647;DHT22;5880;52.342;9.662;2022-09-28T17:01:52;14.10;67.60
11647;DHT22;5880;52.342;9.662;2022-09-28T17:04:21;14.00;67.50
11647;DHT22;5880;52.342;9.662;2022-09-28T17:06:52;14.00;67.50
11647;DHT22;5880;52.342;9.662;2022-09-28T17:09:20;13.90;67.50
11647;DHT22;5880;52.342;9.662;2022-09-28T17:11:46;13.90;67.70
11647;DHT22;5880;52.342;9.662;2022-09-28T17:14:12;13.80;67.60
11647;DHT22;5880;52.342;9.662;2022-09-28T17:16:39;13.80;67.70
11647;DHT22;5880;52.342;9.662;2022-09-28T17:19:20;13.80;67.90
11647;DHT22;5880;52.342;9.662;2022-09-28T17:21:47;13.70;67.80
11647;DHT22;5880;52.342;9.662;2022-09-28T17:24:14;13.70;67.90
11647;DHT22;5880;52.342;9.662;2022-09-28T17:26:40;13.60;67.80
11647;DHT22;5880;52.342;9.662;2022-09-28T17:29:11;13.60;67.90
11647;DHT22;5880;52.342;9.662;2022-09-28T17:31:40;13.50;67.90
11647;DHT22;5880;52.342;9.662;2022-09-28T17:34:07;13.50;68.00
11647;DHT22;5880;52.342;9.662;2022-09-28T17:36:34;13.50;68.10
11647;DHT22;5880;52.342;9.662;2022-09-28T17:39:00;13.50;68.30
11647;DHT22;5880;52.342;9.662;2022-09-28T17:41:26;13.50;68.40
11647;DHT22;5880;52.342;9.662;2022-09-28T17:43:51;13.40;68.40
11647;DHT22;5880;52.342;9.662;2022-09-28T17:46:28;13.40;68.50
11647;DHT22;5880;52.342;9.662;2022-09-28T17:48:57;13.40;68.70
11647;DHT22;5880;52.342;9.662;2022-09-28T17:51:34;13.40;68.60
11647;DHT22;5880;52.342;9.662;2022-09-28T17:54:02;13.40;68.60
11647;DHT22;5880;52.342;9.662;2022-09-28T17:56:30;13.30;68.50
11647;DHT22;5880;52.342;9.662;2022-09-28T17:58:58;13.30;68.50
11647;DHT22;5880;52.342;9.662;2022-09-28T18:01:25;13.30;68.50
11647;DHT22;5880;52.342;9.662;2022-09-28T18:03:50;13.30;68.40
11647;DHT22;5880;52.342;9.662;2022-09-28T18:06:17;13.30;68.40
11647;DHT22;5880;52.342;9.662;2022-09-28T18:08:47;13.20;68.20
11647;DHT22;5880;52.342;9.662;2022-09-28T18:11:13;13.20;68.20
11647;DHT22;5880;52.342;9.662;2022-09-28T18:13:40;13.20;68.20
11647;DHT22;5880;52.342;9.662;2022-09-28T18:16:06;13.20;68.10
11647;DHT22;5880;52.342;9.662;2022-09-28T18:18:32;13.10;68.20
11647;DHT22;5880;52.342;9.662;2022-09-28T18:21:00;13.10;68.10
11647;DHT22;5880;52.342;9.662;2022-09-28T18:23:26;13.00;68.10
11647;DHT22;5880;52.342;9.662;2022-09-28T18:25:52;13.20;68.20
11647;DHT22;5880;52.342;9.662;2022-09-28T18:28:17;13.00;68.10
11647;DHT22;5880;52.342;9.662;2022-09-28T18:30:44;12.90;68.20
11647;DHT22;5880;52.342;9.662;2022-09-28T18:33:11;12.90;68.30
11647;DHT22;5880;52.342;9.662;2022-09-28T18:35:38;12.90;68.40
11647;DHT22;5880;52.342;9.662;2022-09-28T18:38:05;12.80;68.40
11647;DHT22;5880;52.342;9.662;2022-09-28T18:40:32;12.80;68.50
11647;DHT22;5880;52.342;9.662;2022-09-28T18:42:59;12.80;68.70